sensor_id;sensor_type;location;lat;lon;timestamp;temperature;humidity
3310;DHT22;1667;53.238;10.394;2023-02-26T00:04:15;5.10;99.90
3310;DHT22;1667;53.238;10.394;2023-02-26T00:09:14;4.80;99.90
3310;DHT22;1667;53.238;10.394;2023-02-26T00:14:15;4.80;99.90
3310;DHT22;1667;53.238;10.394;2023-02-26T00:19:13;4.60;99.90
3310;DHT22;1667;53.238;10.394;2023-02-26T00:24:13;4.60;99.90
3310;DHT22;1667;53.238;10.394;2023-02-26T00:29:12;4.50;99.90
3310;DHT22;1667;53.238;10.394;2023-02-26T00:34:12;4.50;99.90
3310;DHT22;1667;53.238;10.394;2023-02-26T00:39:22;4.40;99.90
3310;DHT22;1667;53.238;10.394;2023-02-26T00:44:25;4.60;99.90
3310;DHT22;1667;53.238;10.394;2023-02-26T00:49:30;4.10;99.90
3310;DHT22;1667;53.238;10.394;2023-02-26T00:54:34;4.20;99.90
3310;DHT22;1667;53.238;10.394;2023-02-26T00:59:33;4.40;99.90
3310;DHT22;1667;53.238;10.394;2023-02-26T01:04:32;4.30;99.90
3310;DHT22;1667;53.238;10.394;2023-02-26T01:09:32;4.30;99.90
3310;DHT22;1667;53.238;10.394;2023-02-26T01:14:33;4.30;99.90
3310;DHT22;1667;53.238;10.394;2023-02-26T01:19:36;4.20;99.90
3310;DHT22;1667;53.238;10.394;2023-02-26T01:24:38;4.40;99.90
3310;DHT22;1667;53.238;10.394;2023-02-26T01:29:39;4.50;99.90
3310;DHT22;1667;53.238;10.394;2023-02-26T01:34:41;4.50;99.90
3310;DHT22;1667;53.238;10.394;2023-02-26T01:39:45;4.40;99.90
3310;DHT22;1667;53.238;10.394;2023-02-26T01:44:54;4.00;99.90
3310;DHT22;1667;53.238;10.394;2023-02-26T01:49:58;4.20;99.90
3310;DHT22;1667;53.238;10.394;2023-02-26T01:55:04;4.10;99.90
3310;DHT22;1667;53.238;10.394;2023-02-26T02:00:05;4.00;99.90
3310;DHT22;1667;53.238;10.394;2023-02-26T02:05:12;4.20;99.90
3310;DHT22;1667;53.238;10.394;2023-02-26T02:10:15;4.20;99.90
3310;DHT22;1667;53.238;10.394;2023-02-26T02:15:20;4.30;99.90
3310;DHT22;1667;53.238;10.394;2023-02-26T02:20:35;4.20;99.90
3310;DHT22;1667;53.238;10.394;2023-02-26T02:26:11;4.30;99.90
3310;DHT22;1667;53.238;10.394;2023-02-26T02:31:16;4.30;99.90
3310;DHT22;1667;53.238;10.394;2023-02-26T02:36:19;4.40;99.90
3310;DHT22;1667;53.238;10.394;2023-02-26T02:41:23;4.40;99.90
3310;DHT22;1667;53.238;10.394;2023-02-26T02:46:26;4.40;99.90
3310;DHT22;1667;53.238;10.394;2023-02-26T02:51:30;4.30;99.90
3310;DHT22;1667;53.238;10.394;2023-02-26T02:56:33;4.40;99.90
3310;DHT22;1667;53.238;10.394;2023-02-26T03:01:34;4.30;99.90
3310;DHT22;1667;53.238;10.394;2023-02-26T03:06:34;4.20;99.90
3310;DHT22;1667;53.238;10.394;2023-02-26T03:11:33;4.00;99.90
3310;DHT22;1667;53.238;10.394;2023-02-26T03:16:51;4.00;99.90
3310;DHT22;1667;53.238;10.394;2023-02-26T03:21:59;4.20;99.90
3310;DHT22;1667;53.238;10.394;2023-02-26T03:27:22;4.30;99.90
3310;DHT22;1667;53.238;10.394;2023-02-26T03:32:28;4.00;99.90
3310;DHT22;1667;53.238;10.394;2023-02-26T03:37:31;3.90;99.90
3310;DHT22;1667;53.238;10.394;2023-02-26T03:42:34;3.90;99.90
3310;DHT22;1667;53.238;10.394;2023-02-26T03:47:38;3.90;99.90
3310;DHT22;1667;53.238;10.394;2023-02-26T03:52:40;4.00;99.90
3310;DHT22;1667;53.238;10.394;2023-02-26T03:57:53;4.00;99.90
3310;DHT22;1667;53.238;10.394;2023-02-26T04:03:02;3.80;99.90
3310;DHT22;1667;53.238;10.394;2023-02-26T04:08:02;3.70;99.90
3310;DHT22;1667;53.238;10.394;2023-02-26T04:13:02;3.60;99.90
3310;DHT22;1667;53.238;10.394;2023-02-26T04:18:03;3.60;99.90
3310;DHT22;1667;53.238;10.394;2023-02-26T04:23:01;3.60;99.90
3310;DHT22;1667;53.238;10.394;2023-02-26T04:28:00;3.60;99.90
3310;DHT22;1667;53.238;10.394;2023-02-26T04:32:58;3.60;99.90
3310;DHT22;1667;53.238;10.394;2023-02-26T04:38:00;3.60;99.90
3310;DHT22;1667;53.238;10.394;2023-02-26T04:42:59;3.60;99.90
3310;DHT22;1667;53.238;10.394;2023-02-26T04:48:02;3.90;99.90
3310;DHT22;1667;53.238;10.394;2023-02-26T04:53:02;3.60;99.90
3310;DHT22;1667;53.238;10.394;2023-02-26T04:58:03;3.60;99.90
3310;DHT22;1667;53.238;10.394;2023-02-26T05:03:01;3.40;99.90
3310;DHT22;1667;53.238;10.394;2023-02-26T05:07:59;3.50;99.90
3310;DHT22;1667;53.238;10.394;2023-02-26T05:12:59;3.30;99.90
3310;DHT22;1667;53.238;10.394;2023-02-26T05:17:59;2.90;99.90
3310;DHT22;1667;53.238;10.394;2023-02-26T05:22:58;3.10;99.90
3310;DHT22;1667;53.238;10.394;2023-02-26T05:27:58;2.70;99.90
3310;DHT22;1667;53.238;10.394;2023-02-26T05:32:58;2.90;99.90
3310;DHT22;1667;53.238;10.394;2023-02-26T05:37:56;2.90;99.90
3310;DHT22;1667;53.238;10.394;2023-02-26T05:42:56;2.90;99.90
3310;DHT22;1667;53.238;10.394;2023-02-26T05:47:56;3.20;99.90
3310;DHT22;1667;53.238;10.394;2023-02-26T05:52:54;3.30;99.90
3310;DHT22;1667;53.238;10.394;2023-02-26T05:57:52;3.10;99.90
3310;DHT22;1667;53.238;10.394;2023-02-26T06:02:51;2.90;99.90
3310;DHT22;1667;53.238;10.394;2023-02-26T06:07:51;2.90;99.90
3310;DHT22;1667;53.238;10.394;2023-02-26T06:12:50;3.00;99.90
3310;DHT22;1667;53.238;10.394;2023-02-26T06:17:48;3.10;99.90
3310;DHT22;1667;53.238;10.394;2023-02-26T06:22:46;3.20;99.90
3310;DHT22;1667;53.238;10.394;2023-02-26T06:27:46;3.40;99.90
3310;DHT22;1667;53.238;10.394;2023-02-26T06:32:45;3.30;99.90
3310;DHT22;1667;53.238;10.394;2023-02-26T06:37:43;3.20;99.90
3310;DHT22;1667;53.238;10.394;2023-02-26T06:42:43;3.20;99.90
3310;DHT22;1667;53.238;10.394;2023-02-26T06:47:42;3.30;99.90
3310;DHT22;1667;53.238;10.394;2023-02-26T06:52:40;3.20;99.90
3310;DHT22;1667;53.238;10.394;2023-02-26T06:57:39;3.20;99.90
3310;DHT22;1667;53.238;10.394;2023-02-26T07:02:38;3.20;99.90
3310;DHT22;1667;53.238;10.394;2023-02-26T07:07:38;3.20;99.90
3310;DHT22;1667;53.238;10.394;2023-02-26T07:12:37;3.50;99.90
3310;DHT22;1667;53.238;10.394;2023-02-26T07:17:35;3.30;99.90
3310;DHT22;1667;53.238;10.394;2023-02-26T07:22:34;3.30;99.90
3310;DHT22;1667;53.238;10.394;2023-02-26T07:27:34;3.30;99.90
3310;DHT22;1667;53.238;10.394;2023-02-26T07:32:33;3.20;99.90
3310;DHT22;1667;53.238;10.394;2023-02-26T07:37:32;3.00;99.90
3310;DHT22;1667;53.238;10.394;2023-02-26T07:42:30;2.80;99.90
3310;DHT22;1667;53.238;10.394;2023-02-26T07:47:30;2.70;99.90
3310;DHT22;1667;53.238;10.394;2023-02-26T07:52:28;2.60;99.90
3310;DHT22;1667;53.238;10.394;2023-02-26T07:57:27;2.50;99.90
3310;DHT22;1667;53.238;10.394;2023-02-26T08:02:25;2.60;99.90
3310;DHT22;1667;53.238;10.394;2023-02-26T08:07:25;2.70;99.90
3310;DHT22;1667;53.238;10.394;2023-02-26T08:12:23;2.60;99.90
3310;DHT22;1667;53.238;10.394;2023-02-26T08:17:21;2.70;99.90
3310;DHT22;1667;53.238;10.394;2023-02-26T08:22:21;3.10;99.90
3310;DHT22;1667;53.238;10.394;2023-02-26T08:27:21;3.20;99.90
3310;DHT22;1667;53.238;10.394;2023-02-26T08:32:20;3.20;99.90
3310;DHT22;1667;53.238;10.394;2023-02-26T08:37:19;3.40;99.90
3310;DHT22;1667;53.238;10.394;2023-02-26T08:42:21;3.10;99.90
3310;DHT22;1667;53.238;10.394;2023-02-26T08:47:20;3.10;99.90
3310;DHT22;1667;53.238;10.394;2023-02-26T08:52:25;3.40;99.90
3310;DHT22;1667;53.238;10.394;2023-02-26T08:57:26;3.70;99.90
3310;DHT22;1667;53.238;10.394;2023-02-26T09:02:24;3.60;99.90
3310;DHT22;1667;53.238;10.394;2023-02-26T09:07:24;3.90;99.90
3310;DHT22;1667;53.238;10.394;2023-02-26T09:12:22;4.00;99.90
3310;DHT22;1667;53.238;10.394;2023-02-26T09:17:23;4.00;99.90
3310;DHT22;1667;53.238;10.394;2023-02-26T09:22:21;3.90;99.90
3310;DHT22;1667;53.238;10.394;2023-02-26T09:27:19;4.10;99.90
3310;DHT22;1667;53.238;10.394;2023-02-26T09:32:18;4.00;99.90
3310;DHT22;1667;53.238;10.394;2023-02-26T09:37:18;4.50;99.90
3310;DHT22;1667;53.238;10.394;2023-02-26T09:42:26;4.00;99.90
3310;DHT22;1667;53.238;10.394;2023-02-26T09:47:30;4.10;99.90
3310;DHT22;1667;53.238;10.394;2023-02-26T09:52:39;4.10;99.90
3310;DHT22;1667;53.238;10.394;2023-02-26T09:57:42;4.30;99.90
3310;DHT22;1667;53.238;10.394;2023-02-26T10:02:48;4.50;99.90
3310;DHT22;1667;53.238;10.394;2023-02-26T10:07:56;4.70;99.90
3310;DHT22;1667;53.238;10.394;2023-02-26T10:12:56;4.70;99.90
3310;DHT22;1667;53.238;10.394;2023-02-26T10:18:03;4.60;99.90
3310;DHT22;1667;53.238;10.394;2023-02-26T10:23:11;4.40;99.90
3310;DHT22;1667;53.238;10.394;2023-02-26T10:28:32;4.40;99.90
3310;DHT22;1667;53.238;10.394;2023-02-26T10:33:37;4.40;99.90
3310;DHT22;1667;53.238;10.394;2023-02-26T10:38:37;5.00;99.90
3310;DHT22;1667;53.238;10.394;2023-02-26T10:43:38;4.70;99.90
3310;DHT22;1667;53.238;10.394;2023-02-26T10:48:51;4.70;99.90
3310;DHT22;1667;53.238;10.394;2023-02-26T10:53:57;5.20;99.90
3310;DHT22;1667;53.238;10.394;2023-02-26T10:58:57;5.30;99.90
3310;DHT22;1667;53.238;10.394;2023-02-26T11:03:59;5.00;99.90
3310;DHT22;1667;53.238;10.394;2023-02-26T11:09:00;5.20;99.90
3310;DHT22;1667;53.238;10.394;2023-02-26T11:14:00;5.00;99.90
3310;DHT22;1667;53.238;10.394;2023-02-26T11:19:00;4.70;99.90
3310;DHT22;1667;53.238;10.394;2023-02-26T11:24:03;4.80;99.90
3310;DHT22;1667;53.238;10.394;2023-02-26T11:29:04;4.80;99.90
3310;DHT22;1667;53.238;10.394;2023-02-26T11:34:04;5.00;99.90
3310;DHT22;1667;53.238;10.394;2023-02-26T11:39:07;5.20;99.90
3310;DHT22;1667;53.238;10.394;2023-02-26T11:44:10;5.20;99.90
3310;DHT22;1667;53.238;10.394;2023-02-26T11:49:13;4.90;99.90
3310;DHT22;1667;53.238;10.394;2023-02-26T11:54:22;5.00;99.90
3310;DHT22;1667;53.238;10.394;2023-02-26T11:59:22;4.90;99.90
3310;DHT22;1667;53.238;10.394;2023-02-26T12:04:22;5.30;99.90
3310;DHT22;1667;53.238;10.394;2023-02-26T12:09:25;5.00;99.90
3310;DHT22;1667;53.238;10.394;2023-02-26T12:14:48;4.90;99.90
3310;DHT22;1667;53.238;10.394;2023-02-26T12:19:54;4.90;99.90
3310;DHT22;1667;53.238;10.394;2023-02-26T12:30:49;4.90;99.90
3310;DHT22;1667;53.238;10.394;2023-02-26T12:36:06;5.00;99.90
3310;DHT22;1667;53.238;10.394;2023-02-26T12:41:39;5.10;99.90
3310;DHT22;1667;53.238;10.394;2023-02-26T12:46:51;5.60;99.90
3310;DHT22;1667;53.238;10.394;2023-02-26T12:52:13;6.10;99.90
3310;DHT22;1667;53.238;10.394;2023-02-26T13:03:20;5.70;99.90
3310;DHT22;1667;53.238;10.394;2023-02-26T13:08:25;5.90;99.90
3310;DHT22;1667;53.238;10.394;2023-02-26T13:13:43;6.00;99.90
3310;DHT22;1667;53.238;10.394;2023-02-26T13:18:48;6.20;99.90
3310;DHT22;1667;53.238;10.394;2023-02-26T13:23:51;6.30;99.90
3310;DHT22;1667;53.238;10.394;2023-02-26T13:28:55;6.50;99.90
3310;DHT22;1667;53.238;10.394;2023-02-26T13:33:59;6.20;99.90
3310;DHT22;1667;53.238;10.394;2023-02-26T13:39:15;6.50;99.90
3310;DHT22;1667;53.238;10.394;2023-02-26T13:44:26;7.00;99.90
3310;DHT22;1667;53.238;10.394;2023-02-26T13:49:37;6.90;99.90
3310;DHT22;1667;53.238;10.394;2023-02-26T13:54:43;6.80;99.90
3310;DHT22;1667;53.238;10.394;2023-02-26T13:59:52;7.10;99.90
3310;DHT22;1667;53.238;10.394;2023-02-26T14:04:57;6.70;99.90
3310;DHT22;1667;53.238;10.394;2023-02-26T14:09:59;6.70;99.90
3310;DHT22;1667;53.238;10.394;2023-02-26T14:15:18;6.90;99.90
3310;DHT22;1667;53.238;10.394;2023-02-26T14:20:24;6.90;99.90
3310;DHT22;1667;53.238;10.394;2023-02-26T14:25:29;6.80;99.90
3310;DHT22;1667;53.238;10.394;2023-02-26T14:30:33;7.10;99.90
3310;DHT22;1667;53.238;10.394;2023-02-26T14:35:35;7.00;99.90
3310;DHT22;1667;53.238;10.394;2023-02-26T14:40:42;7.40;99.90
3310;DHT22;1667;53.238;10.394;2023-02-26T14:45:42;6.90;99.90
3310;DHT22;1667;53.238;10.394;2023-02-26T14:51:03;7.00;99.90
3310;DHT22;1667;53.238;10.394;2023-02-26T14:56:08;6.90;99.90
3310;DHT22;1667;53.238;10.394;2023-02-26T15:01:20;6.90;99.90
3310;DHT22;1667;53.238;10.394;2023-02-26T15:06:38;7.30;99.90
3310;DHT22;1667;53.238;10.394;2023-02-26T15:11:55;7.30;99.90
3310;DHT22;1667;53.238;10.394;2023-02-26T15:17:05;7.30;99.90
3310;DHT22;1667;53.238;10.394;2023-02-26T15:22:17;7.30;99.90
3310;DHT22;1667;53.238;10.394;2023-02-26T15:27:20;7.20;99.90
3310;DHT22;1667;53.238;10.394;2023-02-26T15:32:25;7.10;99.90
3310;DHT22;1667;53.238;10.394;2023-02-26T15:37:27;7.10;99.90
3310;DHT22;1667;53.238;10.394;2023-02-26T15:42:31;7.20;99.90
3310;DHT22;1667;53.238;10.394;2023-02-26T15:47:33;7.10;99.90
3310;DHT22;1667;53.238;10.394;2023-02-26T15:52:33;7.10;99.90
3310;DHT22;1667;53.238;10.394;2023-02-26T15:57:32;6.90;99.90
3310;DHT22;1667;53.238;10.394;2023-02-26T16:02:32;7.10;99.90
3310;DHT22;1667;53.238;10.394;2023-02-26T16:07:33;6.90;99.90
3310;DHT22;1667;53.238;10.394;2023-02-26T16:12:34;6.90;99.90
3310;DHT22;1667;53.238;10.394;2023-02-26T16:17:38;7.00;99.90
3310;DHT22;1667;53.238;10.394;2023-02-26T16:22:42;6.80;99.90
3310;DHT22;1667;53.238;10.394;2023-02-26T16:27:42;6.90;99.90
3310;DHT22;1667;53.238;10.394;2023-02-26T16:32:41;6.90;99.90
3310;DHT22;1667;53.238;10.394;2023-02-26T16:37:44;6.60;99.90
3310;DHT22;1667;53.238;10.394;2023-02-26T16:42:52;6.40;99.90
3310;DHT22;1667;53.238;10.394;2023-02-26T16:47:53;6.50;99.90
3310;DHT22;1667;53.238;10.394;2023-02-26T16:53:12;6.10;99.90
3310;DHT22;1667;53.238;10.394;2023-02-26T16:58:14;6.10;99.90
3310;DHT22;1667;53.238;10.394;2023-02-26T17:03:16;6.20;99.90
3310;DHT22;1667;53.238;10.394;2023-02-26T17:08:18;6.30;99.90
3310;DHT22;1667;53.238;10.394;2023-02-26T17:13:22;6.20;99.90
3310;DHT22;1667;53.238;10.394;2023-02-26T17:18:24;6.10;99.90
3310;DHT22;1667;53.238;10.394;2023-02-26T17:23:28;6.30;99.90
3310;DHT22;1667;53.238;10.394;2023-02-26T17:28:29;6.00;99.90
3310;DHT22;1667;53.238;10.394;2023-02-26T17:33:31;6.00;99.90
3310;DHT22;1667;53.238;10.394;2023-02-26T17:38:31;5.90;99.90
3310;DHT22;1667;53.238;10.394;2023-02-26T17:43:29;6.20;99.90
3310;DHT22;1667;53.238;10.394;2023-02-26T17:48:29;5.80;99.90
3310;DHT22;1667;53.238;10.394;2023-02-26T17:53:28;6.00;99.90
3310;DHT22;1667;53.238;10.394;2023-02-26T17:58:32;5.80;99.90
3310;DHT22;1667;53.238;10.394;2023-02-26T18:03:31;5.70;99.90
3310;DHT22;1667;53.238;10.394;2023-02-26T18:08:32;5.80;99.90
3310;DHT22;1667;53.238;10.394;2023-02-26T18:13:32;5.90;99.90
3310;DHT22;1667;53.238;10.394;2023-02-26T18:18:31;5.70;99.90
3310;DHT22;1667;53.238;10.394;2023-02-26T18:23:29;5.30;99.90
3310;DHT22;1667;53.238;10.394;2023-02-26T18:28:28;5.40;99.90
3310;DHT22;1667;53.238;10.394;2023-02-26T18:33:28;5.20;99.90
3310;DHT22;1667;53.238;10.394;2023-02-26T18:38:27;5.30;99.90
3310;DHT22;1667;53.238;10.394;2023-02-26T18:43:25;5.30;99.90
3310;DHT22;1667;53.238;10.394;2023-02-26T18:48:24;5.20;99.90
3310;DHT22;1667;53.238;10.394;2023-02-26T18:53:24;5.50;99.90
3310;DHT22;1667;53.238;10.394;2023-02-26T18:58:23;5.10;99.90
3310;DHT22;1667;53.238;10.394;2023-02-26T19:03:22;5.30;99.90
3310;DHT22;1667;53.238;10.394;2023-02-26T19:08:20;5.50;99.90
3310;DHT22;1667;53.238;10.394;2023-02-26T19:13:21;5.40;99.90
3310;DHT22;1667;53.238;10.394;2023-02-26T19:18:20;5.30;99.90
3310;DHT22;1667;53.238;10.394;2023-02-26T19:23:18;5.30;99.90
3310;DHT22;1667;53.238;10.394;2023-02-26T19:28:17;5.60;99.90
3310;DHT22;1667;53.238;10.394;2023-02-26T19:33:16;5.30;99.90
3310;DHT22;1667;53.238;10.394;2023-02-26T19:38:16;5.40;99.90
3310;DHT22;1667;53.238;10.394;2023-02-26T19:43:15;5.40;99.90
3310;DHT22;1667;53.238;10.394;2023-02-26T19:48:13;5.40;99.90
3310;DHT22;1667;53.238;10.394;2023-02-26T19:53:13;5.40;99.90
3310;DHT22;1667;53.238;10.394;2023-02-26T19:58:13;5.50;99.90
3310;DHT22;1667;53.238;10.394;2023-02-26T20:03:11;5.50;99.90
3310;DHT22;1667;53.238;10.394;2023-02-26T20:08:10;5.50;99.90
3310;DHT22;1667;53.238;10.394;2023-02-26T20:13:10;5.40;99.90
3310;DHT22;1667;53.238;10.394;2023-02-26T20:18:09;5.50;99.90
3310;DHT22;1667;53.238;10.394;2023-02-26T20:23:08;5.50;99.90
3310;DHT22;1667;53.238;10.394;2023-02-26T20:28:07;5.40;99.90
3310;DHT22;1667;53.238;10.394;2023-02-26T20:33:07;5.40;99.90
3310;DHT22;1667;53.238;10.394;2023-02-26T20:38:06;5.40;99.90
3310;DHT22;1667;53.238;10.394;2023-02-26T20:43:04;5.40;99.90
3310;DHT22;1667;53.238;10.394;2023-02-26T20:48:05;5.40;99.90
3310;DHT22;1667;53.238;10.394;2023-02-26T20:53:07;5.40;99.90
3310;DHT22;1667;53.238;10.394;2023-02-26T20:58:05;5.30;99.90
3310;DHT22;1667;53.238;10.394;2023-02-26T21:03:04;5.50;99.90
3310;DHT22;1667;53.238;10.394;2023-02-26T21:08:05;5.20;99.90
3310;DHT22;1667;53.238;10.394;2023-02-26T21:13:04;5.30;99.90
3310;DHT22;1667;53.238;10.394;2023-02-26T21:18:03;5.30;99.90
3310;DHT22;1667;53.238;10.394;2023-02-26T21:23:01;5.20;99.90
3310;DHT22;1667;53.238;10.394;2023-02-26T21:28:01;5.20;99.90
3310;DHT22;1667;53.238;10.394;2023-02-26T21:33:00;5.20;99.90
3310;DHT22;1667;53.238;10.394;2023-02-26T21:37:59;5.20;99.90
3310;DHT22;1667;53.238;10.394;2023-02-26T21:42:57;5.30;99.90
3310;DHT22;1667;53.238;10.394;2023-02-26T21:47:57;5.10;99.90
3310;DHT22;1667;53.238;10.394;2023-02-26T21:52:56;5.00;99.90
3310;DHT22;1667;53.238;10.394;2023-02-26T21:57:54;5.00;99.90
3310;DHT22;1667;53.238;10.394;2023-02-26T22:02:53;5.00;99.90
3310;DHT22;1667;53.238;10.394;2023-02-26T22:07:53;4.90;99.90
3310;DHT22;1667;53.238;10.394;2023-02-26T22:12:51;4.80;99.90
3310;DHT22;1667;53.238;10.394;2023-02-26T22:17:50;4.80;99.90
3310;DHT22;1667;53.238;10.394;2023-02-26T22:22:49;4.70;99.90
3310;DHT22;1667;53.238;10.394;2023-02-26T22:27:49;4.70;99.90
3310;DHT22;1667;53.238;10.394;2023-02-26T22:32:47;4.70;99.90
3310;DHT22;1667;53.238;10.394;2023-02-26T22:37:46;4.60;99.90
3310;DHT22;1667;53.238;10.394;2023-02-26T22:42:44;4.60;99.90
3310;DHT22;1667;53.238;10.394;2023-02-26T22:47:44;4.50;99.90
3310;DHT22;1667;53.238;10.394;2023-02-26T22:52:43;4.30;99.90
3310;DHT22;1667;53.238;10.394;2023-02-26T22:57:41;4.30;99.90
3310;DHT22;1667;53.238;10.394;2023-02-26T23:02:40;4.20;99.90
3310;DHT22;1667;53.238;10.394;2023-02-26T23:07:40;4.10;99.90
3310;DHT22;1667;53.238;10.394;2023-02-26T23:12:39;4.10;99.90
3310;DHT22;1667;53.238;10.394;2023-02-26T23:17:37;4.00;99.90
3310;DHT22;1667;53.238;10.394;2023-02-26T23:22:36;4.00;99.90
3310;DHT22;1667;53.238;10.394;2023-02-26T23:27:36;4.00;99.90
3310;DHT22;1667;53.238;10.394;2023-02-26T23:32:34;4.00;99.90
3310;DHT22;1667;53.238;10.394;2023-02-26T23:37:33;4.00;99.90
3310;DHT22;1667;53.238;10.394;2023-02-26T23:42:32;4.00;99.90
3310;DHT22;1667;53.238;10.394;2023-02-26T23:47:32;4.00;99.90
3310;DHT22;1667;53.238;10.394;2023-02-26T23:52:30;3.90;99.90
3310;DHT22;1667;53.238;10.394;2023-02-26T23:57:29;4.10;99.90
